createdAt,value
2017-12-06T00:00:45.282Z,4.61
2017-12-06T00:01:51.513Z,4.60
2017-12-06T00:02:57.595Z,4.59
2017-12-06T00:04:04.789Z,4.59
2017-12-06T00:05:11.953Z,4.58
2017-12-06T00:06:18.146Z,4.59
2017-12-06T00:07:24.634Z,4.58
2017-12-06T00:08:30.726Z,4.59
2017-12-06T00:09:36.710Z,4.60
2017-12-06T00:10:42.744Z,4.60
2017-12-06T00:11:48.860Z,4.62
2017-12-06T00:12:59.054Z,4.62
2017-12-06T00:16:12.929Z,4.63
2017-12-06T00:17:19.005Z,4.62
2017-12-06T00:18:26.504Z,4.61
2017-12-06T00:19:41.411Z,4.62
2017-12-06T00:20:49.029Z,4.62
2017-12-06T00:21:56.833Z,4.61
2017-12-06T00:23:04.963Z,4.61
2017-12-06T00:24:13.163Z,4.61
2017-12-06T00:25:20.086Z,4.61
2017-12-06T00:26:26.163Z,4.61
2017-12-06T00:27:32.129Z,4.61
2017-12-06T00:28:38.243Z,4.61
2017-12-06T00:29:44.297Z,4.61
2017-12-06T00:30:50.419Z,4.61
2017-12-06T00:31:56.840Z,4.59
2017-12-06T00:33:02.888Z,4.60
2017-12-06T00:34:09.203Z,4.61
2017-12-06T00:35:15.382Z,4.61
2017-12-06T00:36:21.419Z,4.61
2017-12-06T00:37:27.416Z,4.61
2017-12-06T00:38:34.754Z,4.61
2017-12-06T00:39:41.470Z,4.61
2017-12-06T00:40:47.441Z,4.61
2017-12-06T00:41:53.516Z,4.62
2017-12-06T00:43:01.405Z,4.62
2017-12-06T00:44:09.929Z,4.62
2017-12-06T00:45:16.113Z,4.62
2017-12-06T00:46:22.232Z,4.62
2017-12-06T00:47:28.473Z,4.62
2017-12-06T00:48:36.976Z,4.63
2017-12-06T00:49:45.315Z,4.63
2017-12-06T00:50:51.831Z,4.63
2017-12-06T00:51:58.093Z,4.63
2017-12-06T00:53:04.303Z,4.63
2017-12-06T00:54:10.474Z,4.63
2017-12-06T00:55:16.639Z,4.64
2017-12-06T00:56:22.823Z,4.63
2017-12-06T00:57:29.261Z,4.63
2017-12-06T00:58:35.457Z,4.63
2017-12-06T00:59:41.631Z,4.63
2017-12-06T01:00:46.634Z,4.62
2017-12-06T01:01:52.811Z,4.61
2017-12-06T01:02:58.768Z,4.61
2017-12-06T01:04:05.014Z,4.62
2017-12-06T01:05:26.420Z,4.62
2017-12-06T01:06:32.147Z,4.62
2017-12-06T01:07:38.320Z,4.62
2017-12-06T01:08:44.235Z,4.62
2017-12-06T01:09:50.174Z,4.62
2017-12-06T01:10:56.452Z,4.61
2017-12-06T01:12:02.388Z,4.61
2017-12-06T01:13:08.779Z,4.62
2017-12-06T01:14:14.730Z,4.61
2017-12-06T01:15:20.936Z,4.60
2017-12-06T01:16:27.501Z,4.61
2017-12-06T01:17:33.661Z,4.61
2017-12-06T01:18:39.891Z,4.61
2017-12-06T01:19:46.034Z,4.62
2017-12-06T01:20:52.750Z,4.61
2017-12-06T01:21:59.298Z,4.60
2017-12-06T01:23:05.978Z,4.60
2017-12-06T01:24:12.170Z,4.61
2017-12-06T01:25:18.376Z,4.61
2017-12-06T01:26:24.627Z,4.62
2017-12-06T01:27:30.758Z,4.61
2017-12-06T01:28:37.213Z,4.62
2017-12-06T01:29:43.458Z,4.63
2017-12-06T01:30:49.623Z,4.63
2017-12-06T01:31:55.830Z,4.63
2017-12-06T01:33:02.017Z,4.62
2017-12-06T01:34:08.138Z,4.61
2017-12-06T01:35:14.724Z,4.61
2017-12-06T01:36:20.877Z,4.60
2017-12-06T01:37:27.019Z,4.61
2017-12-06T01:38:33.053Z,4.62
2017-12-06T01:39:39.077Z,4.62
2017-12-06T01:40:45.279Z,4.62
2017-12-06T01:41:51.554Z,4.63
2017-12-06T01:42:57.591Z,4.63
2017-12-06T01:44:03.694Z,4.63
2017-12-06T01:45:09.719Z,4.64
2017-12-06T01:46:15.735Z,4.64
2017-12-06T01:47:21.932Z,4.64
2017-12-06T01:48:28.269Z,4.63
2017-12-06T01:49:34.277Z,4.63
2017-12-06T01:50:40.461Z,4.63
2017-12-06T01:51:46.504Z,4.62
2017-12-06T01:52:52.579Z,4.62
2017-12-06T01:53:58.613Z,4.62
2017-12-06T01:55:04.978Z,4.62
2017-12-06T01:56:10.988Z,4.62
2017-12-06T01:57:17.109Z,4.63
2017-12-06T01:58:23.148Z,4.63
2017-12-06T01:59:29.176Z,4.63
2017-12-06T02:00:35.547Z,4.62
2017-12-06T02:01:41.565Z,4.62
2017-12-06T02:02:47.646Z,4.62
2017-12-06T02:03:53.685Z,4.61
2017-12-06T02:04:59.714Z,4.61
2017-12-06T02:06:05.758Z,4.60
2017-12-06T02:07:12.206Z,4.61
2017-12-06T02:08:18.247Z,4.61
2017-12-06T02:09:24.351Z,4.62
2017-12-06T02:10:30.423Z,4.62
2017-12-06T02:11:36.445Z,4.62
2017-12-06T02:12:50.666Z,4.61
2017-12-06T02:13:57.037Z,4.61
2017-12-06T02:15:03.203Z,4.61
2017-12-06T02:16:09.263Z,4.61
2017-12-06T02:17:15.442Z,4.62
2017-12-06T02:18:21.518Z,4.63
2017-12-06T02:19:27.661Z,4.65
2017-12-06T02:20:34.027Z,4.65
2017-12-06T02:21:40.378Z,4.65
2017-12-06T02:22:46.671Z,4.65
2017-12-06T02:23:52.959Z,4.66
2017-12-06T02:24:59.355Z,4.66
2017-12-06T02:26:05.658Z,4.66
2017-12-06T02:27:12.144Z,4.66
2017-12-06T02:28:18.522Z,4.66
2017-12-06T02:29:24.905Z,4.65
2017-12-06T02:30:31.099Z,4.65
2017-12-06T02:31:37.391Z,4.65
2017-12-06T02:32:43.501Z,4.65
2017-12-06T02:33:49.716Z,4.65
2017-12-06T02:34:55.944Z,4.65
2017-12-06T02:36:02.218Z,4.65
2017-12-06T02:37:08.505Z,4.65
2017-12-06T02:38:14.725Z,4.65
2017-12-06T02:39:21.007Z,4.64
2017-12-06T02:44:48.818Z,4.64
2017-12-06T02:45:55.098Z,4.66
2017-12-06T02:47:01.739Z,4.67
2017-12-06T02:48:08.011Z,4.67
2017-12-06T02:49:14.227Z,4.67
2017-12-06T02:50:20.679Z,4.66
2017-12-06T02:51:26.925Z,4.66
2017-12-06T02:52:32.978Z,4.68
2017-12-06T02:53:39.429Z,4.68
2017-12-06T02:54:45.615Z,4.68
2017-12-06T02:55:51.781Z,4.69
2017-12-06T02:56:57.859Z,4.67
2017-12-06T02:58:03.923Z,4.67
2017-12-06T02:59:10.037Z,4.67
2017-12-06T03:00:16.548Z,4.68
2017-12-06T03:01:22.627Z,4.67
2017-12-06T03:02:28.671Z,4.67
2017-12-06T03:03:34.779Z,4.66
2017-12-06T03:04:40.865Z,4.65
2017-12-06T03:05:46.903Z,4.64
2017-12-06T03:06:54.300Z,4.64
2017-12-06T03:08:00.324Z,4.64
2017-12-06T03:09:06.866Z,4.64
2017-12-06T03:10:13.063Z,4.64
2017-12-06T03:11:19.217Z,4.63
2017-12-06T03:12:25.631Z,4.63
2017-12-06T03:13:32.364Z,4.63
2017-12-06T03:14:38.601Z,4.62
2017-12-06T03:15:44.872Z,4.62
2017-12-06T03:16:51.365Z,4.61
2017-12-06T03:17:58.008Z,4.62
2017-12-06T03:19:06.492Z,4.62
2017-12-06T03:20:14.551Z,4.61
2017-12-06T03:21:20.678Z,4.62
2017-12-06T03:22:26.836Z,4.61
2017-12-06T03:23:33.156Z,4.61
2017-12-06T03:24:39.327Z,4.63
2017-12-06T03:25:45.339Z,4.63
2017-12-06T03:26:51.768Z,4.64
2017-12-06T03:27:57.832Z,4.64
2017-12-06T03:29:03.845Z,4.63
2017-12-06T03:30:09.872Z,4.64
2017-12-06T03:31:15.997Z,4.62
2017-12-06T03:32:22.063Z,4.63
2017-12-06T03:33:28.383Z,4.62
2017-12-06T03:34:34.532Z,4.62
2017-12-06T03:35:40.560Z,4.62
2017-12-06T03:36:46.575Z,4.62
2017-12-06T03:37:52.651Z,4.62
2017-12-06T03:38:58.751Z,4.62
2017-12-06T03:40:05.208Z,4.63
2017-12-06T03:41:11.237Z,4.64
2017-12-06T03:42:17.266Z,4.65
2017-12-06T03:43:23.261Z,4.66
2017-12-06T03:44:29.321Z,4.68
2017-12-06T03:45:35.380Z,4.67
2017-12-06T03:46:41.798Z,4.67
2017-12-06T03:47:47.861Z,4.68
2017-12-06T03:48:53.896Z,4.69
2017-12-06T03:49:59.884Z,4.68
2017-12-06T03:51:05.913Z,4.68
2017-12-06T03:52:12.208Z,4.69
2017-12-06T03:53:18.258Z,4.70
2017-12-06T03:54:24.327Z,4.70
2017-12-06T03:55:31.050Z,4.70
2017-12-06T03:56:37.131Z,4.70
2017-12-06T03:57:43.449Z,4.70
2017-12-06T03:58:49.665Z,4.69
2017-12-06T03:59:55.877Z,4.69
2017-12-06T04:01:01.895Z,4.70
2017-12-06T04:02:08.119Z,4.70
2017-12-06T04:03:14.485Z,4.68
2017-12-06T04:04:20.555Z,4.68
2017-12-06T04:05:26.613Z,4.68
2017-12-06T04:06:33.176Z,4.68
2017-12-06T04:07:39.358Z,4.69
2017-12-06T04:08:45.637Z,4.70
2017-12-06T04:09:51.665Z,4.69
2017-12-06T04:10:57.670Z,4.69
2017-12-06T04:12:03.710Z,4.71
2017-12-06T04:13:09.799Z,4.71
2017-12-06T04:14:16.218Z,4.71
2017-12-06T04:15:22.251Z,4.72
2017-12-06T04:16:28.406Z,4.73
2017-12-06T04:17:34.420Z,4.74
2017-12-06T04:18:40.429Z,4.75
2017-12-06T04:19:46.828Z,4.75
2017-12-06T04:20:52.974Z,4.75
2017-12-06T04:21:59.093Z,4.76
2017-12-06T04:23:05.171Z,4.75
2017-12-06T04:24:11.214Z,4.75
2017-12-06T04:25:17.296Z,4.75
2017-12-06T04:26:23.560Z,4.75
2017-12-06T04:27:29.659Z,4.75
2017-12-06T04:28:35.732Z,4.76
2017-12-06T04:29:41.552Z,4.75
2017-12-06T04:30:47.611Z,4.75
2017-12-06T04:31:53.725Z,4.74
2017-12-06T04:33:00.044Z,4.73
2017-12-06T04:34:06.499Z,4.74
2017-12-06T04:35:12.997Z,4.74
2017-12-06T04:36:19.031Z,4.74
2017-12-06T04:37:26.037Z,4.73
2017-12-06T04:38:32.083Z,4.73
2017-12-06T04:39:38.335Z,4.73
2017-12-06T04:40:44.408Z,4.73
2017-12-06T04:41:50.612Z,4.74
2017-12-06T04:42:56.662Z,4.74
2017-12-06T04:44:02.654Z,4.75
2017-12-06T04:45:08.759Z,4.75
2017-12-06T04:46:15.056Z,4.76
2017-12-06T04:47:21.055Z,4.75
2017-12-06T04:48:27.106Z,4.77
2017-12-06T04:49:33.075Z,4.76
2017-12-06T04:50:39.118Z,4.76
2017-12-06T04:51:45.164Z,4.76
2017-12-06T04:52:51.479Z,4.75
2017-12-06T04:53:57.536Z,4.76
2017-12-06T04:55:03.560Z,4.76
2017-12-06T04:56:09.580Z,4.76
2017-12-06T04:57:15.569Z,4.77
2017-12-06T04:58:21.579Z,4.77
2017-12-06T04:59:28.267Z,4.77
2017-12-06T05:00:34.271Z,4.77
2017-12-06T05:01:40.316Z,4.77
2017-12-06T05:02:46.368Z,4.76
2017-12-06T05:03:52.361Z,4.78
2017-12-06T05:04:58.434Z,4.77
2017-12-06T05:06:04.955Z,4.78
2017-12-06T05:07:11.133Z,4.77
2017-12-06T05:08:17.415Z,4.77
2017-12-06T05:09:23.611Z,4.78
2017-12-06T05:10:29.824Z,4.78
2017-12-06T05:11:36.180Z,4.79
2017-12-06T05:12:42.701Z,4.78
2017-12-06T05:13:48.919Z,4.78
2017-12-06T05:14:55.154Z,4.78
2017-12-06T05:16:01.538Z,4.78
2017-12-06T05:17:08.357Z,4.78
2017-12-06T05:18:14.884Z,4.78
2017-12-06T05:19:21.176Z,4.79
2017-12-06T05:20:27.455Z,4.78
2017-12-06T05:21:33.685Z,4.78
2017-12-06T05:22:40.129Z,4.78
2017-12-06T05:23:46.423Z,4.78
2017-12-06T05:24:52.702Z,4.78
2017-12-06T05:25:59.017Z,4.79
2017-12-06T05:27:05.285Z,4.80
2017-12-06T05:28:11.538Z,4.80
2017-12-06T05:29:17.871Z,4.80
2017-12-06T05:30:25.000Z,4.80
2017-12-06T05:31:31.250Z,4.82
2017-12-06T05:32:37.474Z,4.81
2017-12-06T05:33:43.717Z,4.82
2017-12-06T05:34:49.734Z,4.81
2017-12-06T05:35:55.823Z,4.81
2017-12-06T05:37:02.076Z,4.81
2017-12-06T05:38:08.427Z,4.81
2017-12-06T05:39:14.752Z,4.80
2017-12-06T05:40:20.989Z,4.81
2017-12-06T05:41:27.231Z,4.80
2017-12-06T05:42:33.767Z,4.80
2017-12-06T05:43:39.991Z,4.82
2017-12-06T05:44:46.310Z,4.81
2017-12-06T05:45:52.520Z,4.81
2017-12-06T05:46:58.838Z,4.82
2017-12-06T05:48:05.289Z,4.81
2017-12-06T05:49:11.581Z,4.81
2017-12-06T05:50:17.852Z,4.80
2017-12-06T05:51:24.115Z,4.80
2017-12-06T05:52:30.451Z,4.80
2017-12-06T05:53:36.770Z,4.80
2017-12-06T05:54:43.496Z,4.81
2017-12-06T05:55:49.920Z,4.81
2017-12-06T05:56:56.156Z,4.80
2017-12-06T05:58:02.471Z,4.81
2017-12-06T05:59:08.716Z,4.80
2017-12-06T06:00:14.991Z,4.80
2017-12-06T06:01:21.515Z,4.81
2017-12-06T06:02:27.821Z,4.81
2017-12-06T06:03:34.051Z,4.81
2017-12-06T06:04:40.309Z,4.81
2017-12-06T06:05:46.581Z,4.81
2017-12-06T06:06:53.082Z,4.81
2017-12-06T06:07:59.132Z,4.80
2017-12-06T06:09:05.367Z,4.80
2017-12-06T06:10:11.507Z,4.80
2017-12-06T06:11:17.600Z,4.80
2017-12-06T06:12:24.177Z,4.79
2017-12-06T06:13:30.275Z,4.80
2017-12-06T06:14:36.362Z,4.80
2017-12-06T06:15:42.426Z,4.80
2017-12-06T06:16:48.624Z,4.80
2017-12-06T06:17:55.118Z,4.79
2017-12-06T06:19:01.009Z,4.80
2017-12-06T06:20:07.061Z,4.80
2017-12-06T06:21:12.996Z,4.80
2017-12-06T06:22:18.791Z,4.80
2017-12-06T06:23:24.525Z,4.80
2017-12-06T06:24:30.662Z,4.80
2017-12-06T06:25:36.360Z,4.80
2017-12-06T06:26:42.063Z,4.81
2017-12-06T06:27:48.117Z,4.81
2017-12-06T06:28:54.147Z,4.81
2017-12-06T06:30:00.365Z,4.81
2017-12-06T06:31:06.832Z,4.81
2017-12-06T06:32:13.007Z,4.82
2017-12-06T06:33:19.103Z,4.81
2017-12-06T06:34:25.261Z,4.82
2017-12-06T06:35:31.422Z,4.81
2017-12-06T06:36:37.525Z,4.82
2017-12-06T06:37:43.968Z,4.82
2017-12-06T06:38:50.120Z,4.82
2017-12-06T06:39:56.203Z,4.82
2017-12-06T06:41:02.495Z,4.82
2017-12-06T06:42:08.774Z,4.82
2017-12-06T06:43:15.102Z,4.82
2017-12-06T06:44:21.752Z,4.83
2017-12-06T06:45:28.085Z,4.83
2017-12-06T06:46:34.279Z,4.83
2017-12-06T06:47:40.589Z,4.83
2017-12-06T06:48:46.861Z,4.83
2017-12-06T06:49:53.147Z,4.83
2017-12-06T06:50:59.876Z,4.82
2017-12-06T06:52:06.441Z,4.83
2017-12-06T06:53:12.706Z,4.83
2017-12-06T06:54:19.098Z,4.83
2017-12-06T06:55:25.422Z,4.85
2017-12-06T06:56:32.061Z,4.85
2017-12-06T06:57:38.327Z,4.86
2017-12-06T06:58:44.640Z,4.86
2017-12-06T06:59:50.853Z,4.86
2017-12-06T07:00:57.147Z,4.86
2017-12-06T07:02:03.447Z,4.86
2017-12-06T07:03:09.979Z,4.85
2017-12-06T07:04:16.196Z,4.86
2017-12-06T07:05:22.449Z,4.86
2017-12-06T07:06:28.691Z,4.86
2017-12-06T07:07:34.979Z,4.85
2017-12-06T07:08:41.283Z,4.86
2017-12-06T07:09:48.029Z,4.86
2017-12-06T07:10:54.390Z,4.88
2017-12-06T07:12:00.683Z,4.88
2017-12-06T07:13:08.982Z,4.88
2017-12-06T07:14:15.820Z,4.88
2017-12-06T07:15:22.074Z,4.88
2017-12-06T07:16:28.851Z,4.88
2017-12-06T07:17:35.120Z,4.88
2017-12-06T07:18:41.411Z,4.88
2017-12-06T07:19:50.269Z,4.88
2017-12-06T07:20:56.415Z,4.88
2017-12-06T07:22:02.636Z,4.88
2017-12-06T07:23:09.196Z,4.88
2017-12-06T07:24:15.546Z,4.88
2017-12-06T07:25:21.878Z,4.89
2017-12-06T07:26:28.156Z,4.90
2017-12-06T07:27:34.415Z,4.89
2017-12-06T07:28:40.766Z,4.90
2017-12-06T07:29:47.073Z,4.90
2017-12-06T07:30:53.471Z,4.91
2017-12-06T07:31:59.719Z,4.91
2017-12-06T07:33:06.013Z,4.91
2017-12-06T07:34:12.268Z,4.92
2017-12-06T07:35:18.933Z,4.92
2017-12-06T07:36:25.408Z,4.93
2017-12-06T07:37:31.840Z,4.93
2017-12-06T07:38:38.020Z,4.93
2017-12-06T07:39:45.263Z,4.94
2017-12-06T07:40:51.516Z,4.93
2017-12-06T07:41:58.143Z,4.93
2017-12-06T07:43:04.398Z,4.93
2017-12-06T07:44:10.678Z,4.94
2017-12-06T07:45:16.883Z,4.96
2017-12-06T07:46:23.194Z,4.96
2017-12-06T07:47:29.565Z,4.95
2017-12-06T07:48:36.875Z,4.96
2017-12-06T07:49:44.168Z,4.96
2017-12-06T07:50:50.441Z,4.96
2017-12-06T07:51:56.886Z,4.97
2017-12-06T07:53:03.535Z,4.96
2017-12-06T07:54:10.807Z,4.97
2017-12-06T07:55:17.548Z,4.98
2017-12-06T07:56:23.808Z,4.98
2017-12-06T07:57:30.120Z,4.98
2017-12-06T07:58:40.676Z,4.98
2017-12-06T07:59:46.903Z,4.99
2017-12-06T08:00:53.168Z,4.99
2017-12-06T08:01:59.808Z,4.99
2017-12-06T08:03:05.833Z,5.00
2017-12-06T08:04:11.876Z,5.00
2017-12-06T08:05:18.090Z,5.00
2017-12-06T08:06:24.869Z,5.01
2017-12-06T08:07:31.218Z,5.01
2017-12-06T08:08:37.267Z,5.02
2017-12-06T08:09:43.806Z,5.02
2017-12-06T08:10:49.945Z,5.02
2017-12-06T08:11:56.173Z,5.02
2017-12-06T08:13:02.246Z,5.02
2017-12-06T08:14:08.773Z,5.02
2017-12-06T08:15:14.820Z,5.03
2017-12-06T08:16:21.092Z,5.04
2017-12-06T08:17:27.298Z,5.04
2017-12-06T08:18:33.403Z,5.05
2017-12-06T08:19:39.611Z,5.05
2017-12-06T08:20:46.023Z,5.06
2017-12-06T08:21:52.117Z,5.06
2017-12-06T08:22:58.294Z,5.07
2017-12-06T08:24:04.340Z,5.08
2017-12-06T08:25:10.508Z,5.07
2017-12-06T08:26:17.067Z,5.08
2017-12-06T08:27:23.143Z,5.09
2017-12-06T08:28:29.259Z,5.09
2017-12-06T08:29:35.232Z,5.11
2017-12-06T08:30:41.166Z,5.12
2017-12-06T08:31:47.456Z,5.13
2017-12-06T08:32:53.539Z,5.13
2017-12-06T08:33:59.579Z,5.13
2017-12-06T08:35:05.644Z,5.12
2017-12-06T08:36:11.713Z,5.13
2017-12-06T08:37:18.417Z,5.13
2017-12-06T08:38:24.926Z,5.13
2017-12-06T08:39:31.176Z,5.13
2017-12-06T08:40:37.439Z,5.14
2017-12-06T08:41:43.688Z,5.14
2017-12-06T08:42:50.312Z,5.15
2017-12-06T08:43:56.581Z,5.15
2017-12-06T08:45:02.841Z,5.16
2017-12-06T08:46:09.118Z,5.17
2017-12-06T08:47:15.683Z,5.17
2017-12-06T08:48:21.972Z,5.17
2017-12-06T08:49:28.710Z,5.18
2017-12-06T08:50:35.407Z,5.19
2017-12-06T08:51:41.703Z,5.19
2017-12-06T08:52:48.030Z,5.19
2017-12-06T08:53:55.144Z,5.19
2017-12-06T08:55:01.405Z,5.19
2017-12-06T08:56:08.113Z,5.20
2017-12-06T08:57:14.636Z,5.20
2017-12-06T08:58:21.008Z,5.21
2017-12-06T08:59:27.269Z,5.22
2017-12-06T09:00:34.026Z,5.22
2017-12-06T09:01:40.994Z,5.23
2017-12-06T09:02:47.740Z,5.21
2017-12-06T09:03:53.984Z,5.22
2017-12-06T09:05:02.264Z,5.23
2017-12-06T09:06:08.707Z,5.24
2017-12-06T09:07:16.359Z,5.24
2017-12-06T09:08:22.667Z,5.25
2017-12-06T09:09:30.246Z,5.25
2017-12-06T09:10:36.572Z,5.27
2017-12-06T09:11:42.859Z,5.29
2017-12-06T09:12:49.794Z,5.30
2017-12-06T09:13:56.085Z,5.31
2017-12-06T09:15:02.303Z,5.32
2017-12-06T09:16:09.050Z,5.33
2017-12-06T09:17:15.421Z,5.34
2017-12-06T09:18:21.720Z,5.33
2017-12-06T09:19:27.927Z,5.34
2017-12-06T09:20:34.250Z,5.35
2017-12-06T09:21:41.103Z,5.37
2017-12-06T09:22:47.466Z,5.36
2017-12-06T09:23:53.878Z,5.38
2017-12-06T09:25:00.276Z,5.37
2017-12-06T09:26:06.699Z,5.37
2017-12-06T09:27:12.963Z,5.37
2017-12-06T09:28:19.845Z,5.38
2017-12-06T09:29:26.107Z,5.37
2017-12-06T09:30:32.406Z,5.37
2017-12-06T09:31:38.746Z,5.38
2017-12-06T09:32:45.073Z,5.38
2017-12-06T09:33:51.448Z,5.38
2017-12-06T09:34:58.155Z,5.40
2017-12-06T09:36:04.447Z,5.41
2017-12-06T09:37:10.752Z,5.41
2017-12-06T09:38:17.438Z,5.43
2017-12-06T09:39:23.693Z,5.43
2017-12-06T09:40:30.732Z,5.43
2017-12-06T09:41:37.045Z,5.45
2017-12-06T09:42:43.498Z,5.45
2017-12-06T09:43:49.830Z,5.45
2017-12-06T09:44:56.586Z,5.46
2017-12-06T09:46:03.601Z,5.48
2017-12-06T09:47:09.879Z,5.49
2017-12-06T09:48:16.629Z,5.50
2017-12-06T09:49:23.064Z,5.50
2017-12-06T09:50:29.512Z,5.50
2017-12-06T09:51:35.946Z,5.50
2017-12-06T09:52:42.377Z,5.51
2017-12-06T09:53:48.730Z,5.50
2017-12-06T09:54:55.368Z,5.51
2017-12-06T09:56:01.842Z,5.51
2017-12-06T09:57:08.243Z,5.51
2017-12-06T09:58:14.612Z,5.52
2017-12-06T09:59:20.987Z,5.52
2017-12-06T10:00:27.313Z,5.52
2017-12-06T10:01:34.452Z,5.52
2017-12-06T10:02:40.904Z,5.53
2017-12-06T10:03:47.228Z,5.54
2017-12-06T10:04:53.338Z,5.54
2017-12-06T10:05:59.519Z,5.55
2017-12-06T10:07:05.727Z,5.56
2017-12-06T10:08:12.205Z,5.56
2017-12-06T10:09:18.297Z,5.57
2017-12-06T10:10:24.732Z,5.58
2017-12-06T10:11:31.138Z,5.59
2017-12-06T10:12:37.545Z,5.58
2017-12-06T10:13:44.615Z,5.59
2017-12-06T10:14:50.958Z,5.59
2017-12-06T10:15:57.607Z,5.59
2017-12-06T10:17:04.238Z,5.59
2017-12-06T10:18:10.612Z,5.60
2017-12-06T10:19:17.112Z,5.60
2017-12-06T10:20:23.950Z,5.60
2017-12-06T10:21:30.354Z,5.61
2017-12-06T10:22:36.687Z,5.62
2017-12-06T10:23:42.941Z,5.62
2017-12-06T10:24:49.347Z,5.63
2017-12-06T10:25:55.640Z,5.63
2017-12-06T10:27:02.241Z,5.64
2017-12-06T10:28:09.406Z,5.65
2017-12-06T10:29:15.818Z,5.65
2017-12-06T10:30:22.027Z,5.64
2017-12-06T10:31:28.388Z,5.66
2017-12-06T10:32:34.854Z,5.66
2017-12-06T10:33:41.584Z,5.66
2017-12-06T10:34:50.256Z,5.67
2017-12-06T10:35:56.537Z,5.68
2017-12-06T10:37:02.891Z,5.69
2017-12-06T10:38:09.164Z,5.70
2017-12-06T10:39:15.356Z,5.69
2017-12-06T10:40:22.636Z,5.71
2017-12-06T10:41:29.415Z,5.70
2017-12-06T10:42:35.748Z,5.70
2017-12-06T10:43:42.003Z,5.72
2017-12-06T10:44:48.276Z,5.71
2017-12-06T10:45:55.178Z,5.73
2017-12-06T10:47:01.593Z,5.73
2017-12-06T10:48:07.897Z,5.74
2017-12-06T10:49:14.866Z,5.74
2017-12-06T10:50:21.291Z,5.75
2017-12-06T10:51:27.699Z,5.75
2017-12-06T10:52:34.404Z,5.76
2017-12-06T10:53:40.965Z,5.75
2017-12-06T10:54:47.765Z,5.77
2017-12-06T10:55:54.077Z,5.78
2017-12-06T10:57:00.640Z,5.78
2017-12-06T10:58:07.056Z,5.78
2017-12-06T10:59:13.856Z,5.79
2017-12-06T11:00:21.498Z,5.80
2017-12-06T11:01:27.801Z,5.80
2017-12-06T11:02:34.059Z,5.80
2017-12-06T11:03:40.479Z,5.81
2017-12-06T11:04:48.122Z,5.82
2017-12-06T11:05:55.275Z,5.82
2017-12-06T11:07:01.624Z,5.82
2017-12-06T11:08:08.286Z,5.83
2017-12-06T11:09:14.621Z,5.84
2017-12-06T11:10:21.433Z,5.85
2017-12-06T11:11:27.826Z,5.84
2017-12-06T11:12:34.497Z,5.86
2017-12-06T11:13:40.840Z,5.85
2017-12-06T11:14:47.211Z,5.85
2017-12-06T11:15:53.572Z,5.86
2017-12-06T11:17:00.220Z,5.87
2017-12-06T11:18:06.534Z,5.86
2017-12-06T11:19:13.643Z,5.86
2017-12-06T11:20:19.993Z,5.86
2017-12-06T11:21:26.339Z,5.87
2017-12-06T11:22:32.665Z,5.87
2017-12-06T11:23:38.946Z,5.87
2017-12-06T11:24:46.536Z,5.88
2017-12-06T11:25:53.431Z,5.88
2017-12-06T11:26:59.779Z,5.88
2017-12-06T11:28:06.090Z,5.89
2017-12-06T11:29:12.540Z,5.89
2017-12-06T11:30:18.937Z,5.89
2017-12-06T11:31:25.633Z,5.89
2017-12-06T11:32:32.387Z,5.90
2017-12-06T11:33:38.805Z,5.90
2017-12-06T11:34:45.154Z,5.92
2017-12-06T11:35:51.527Z,5.91
2017-12-06T11:36:57.829Z,5.91
2017-12-06T11:38:04.207Z,5.92
2017-12-06T11:39:12.341Z,5.93
2017-12-06T11:40:19.347Z,5.93
2017-12-06T11:41:25.937Z,5.93
2017-12-06T11:42:32.436Z,5.93
2017-12-06T11:43:39.482Z,5.94
2017-12-06T11:44:45.875Z,5.95
2017-12-06T11:45:52.583Z,5.96
2017-12-06T11:46:58.919Z,5.96
2017-12-06T11:48:07.960Z,5.98
2017-12-06T11:49:14.336Z,5.99
2017-12-06T11:50:20.632Z,5.99
2017-12-06T11:51:27.795Z,5.99
2017-12-06T11:52:34.627Z,6.00
2017-12-06T11:53:46.141Z,6.01
2017-12-06T11:54:55.514Z,6.01
2017-12-06T11:56:02.078Z,6.02
2017-12-06T11:57:08.448Z,6.03
2017-12-06T11:58:14.712Z,6.03
2017-12-06T11:59:21.531Z,6.03
2017-12-06T12:00:27.932Z,6.04
2017-12-06T12:01:34.392Z,6.04
2017-12-06T12:02:40.761Z,6.05
2017-12-06T12:03:47.253Z,6.07
2017-12-06T12:04:53.676Z,6.06
2017-12-06T12:06:00.404Z,6.07
2017-12-06T12:07:07.221Z,6.08
2017-12-06T12:08:13.616Z,6.08
2017-12-06T12:09:20.066Z,6.09
2017-12-06T12:10:26.421Z,6.09
2017-12-06T12:11:32.837Z,6.10
2017-12-06T12:12:39.517Z,6.11
2017-12-06T12:13:46.231Z,6.11
2017-12-06T12:14:52.551Z,6.12
2017-12-06T12:15:58.852Z,6.12
2017-12-06T12:17:05.331Z,6.12
2017-12-06T12:18:12.487Z,6.13
2017-12-06T12:19:19.266Z,6.13
2017-12-06T12:20:27.707Z,6.14
2017-12-06T12:21:34.064Z,6.14
2017-12-06T12:22:47.084Z,6.15
2017-12-06T12:23:53.501Z,6.16
2017-12-06T12:24:59.932Z,6.16
2017-12-06T12:26:06.788Z,6.17
2017-12-06T12:27:13.133Z,6.17
2017-12-06T12:28:19.506Z,6.18
2017-12-06T12:29:25.800Z,6.18
2017-12-06T12:30:32.221Z,6.18
2017-12-06T12:31:40.415Z,6.18
2017-12-06T12:32:49.860Z,6.18
2017-12-06T12:33:56.713Z,6.19
2017-12-06T12:35:03.053Z,6.20
2017-12-06T12:36:09.676Z,6.20
2017-12-06T12:37:16.051Z,6.20
2017-12-06T12:38:22.503Z,6.20
2017-12-06T12:39:29.233Z,6.21
2017-12-06T12:40:35.619Z,6.21
2017-12-06T12:41:41.916Z,6.21
2017-12-06T12:42:48.971Z,6.21
2017-12-06T12:43:56.080Z,6.21
2017-12-06T12:45:02.543Z,6.21
2017-12-06T12:46:09.364Z,6.22
2017-12-06T12:47:16.021Z,6.23
2017-12-06T12:48:22.383Z,6.23
2017-12-06T12:49:28.722Z,6.23
2017-12-06T12:50:35.118Z,6.23
2017-12-06T12:51:41.555Z,6.23
2017-12-06T12:52:48.015Z,6.23
2017-12-06T12:53:54.425Z,6.23
2017-12-06T12:55:00.600Z,6.24
2017-12-06T12:56:06.718Z,6.25
2017-12-06T12:57:21.389Z,6.25
2017-12-06T12:58:27.662Z,6.25
2017-12-06T12:59:33.991Z,6.26
2017-12-06T13:00:41.677Z,6.26
2017-12-06T13:01:47.842Z,6.26
2017-12-06T13:02:53.976Z,6.27
2017-12-06T13:04:00.510Z,6.27
2017-12-06T13:05:06.733Z,6.28
2017-12-06T13:06:14.188Z,6.28
2017-12-06T13:07:20.736Z,6.28
2017-12-06T13:08:27.007Z,6.27
2017-12-06T13:09:33.697Z,6.28
2017-12-06T13:10:40.030Z,6.28
2017-12-06T13:11:46.327Z,6.29
2017-12-06T13:12:52.682Z,6.29
2017-12-06T13:13:59.096Z,6.29
2017-12-06T13:15:05.410Z,6.30
2017-12-06T13:16:12.024Z,6.30
2017-12-06T13:17:18.426Z,6.30
2017-12-06T13:18:24.680Z,6.31
2017-12-06T13:19:31.094Z,6.31
2017-12-06T13:20:37.377Z,6.32
2017-12-06T13:21:43.637Z,6.33
2017-12-06T13:22:53.949Z,6.34
2017-12-06T13:24:00.232Z,6.34
2017-12-06T13:25:06.731Z,6.34
2017-12-06T13:26:13.499Z,6.34
2017-12-06T13:27:19.843Z,6.35
2017-12-06T13:28:29.679Z,6.36
2017-12-06T13:29:36.010Z,6.35
2017-12-06T13:30:42.324Z,6.35
2017-12-06T13:31:49.398Z,6.35
2017-12-06T13:32:55.671Z,6.35
2017-12-06T13:34:02.029Z,6.35
2017-12-06T13:35:08.647Z,6.36
2017-12-06T13:36:15.014Z,6.36
2017-12-06T13:37:21.986Z,6.36
2017-12-06T13:38:28.248Z,6.36
2017-12-06T13:39:34.450Z,6.36
2017-12-06T13:40:42.520Z,6.36
2017-12-06T13:41:50.629Z,6.37
2017-12-06T13:42:56.888Z,6.38
2017-12-06T13:44:07.825Z,6.37
2017-12-06T13:45:14.207Z,6.38
2017-12-06T13:46:27.569Z,6.37
2017-12-06T13:47:33.673Z,6.38
2017-12-06T13:48:39.756Z,6.39
2017-12-06T13:49:51.393Z,6.39
2017-12-06T13:50:58.855Z,6.39
2017-12-06T13:52:05.217Z,6.39
2017-12-06T13:53:11.876Z,6.40
2017-12-06T13:54:21.803Z,6.40
2017-12-06T13:55:28.291Z,6.41
2017-12-06T13:56:37.674Z,6.40
2017-12-06T13:57:44.167Z,6.41
2017-12-06T13:58:53.190Z,6.42
2017-12-06T14:00:00.133Z,6.42
2017-12-06T14:01:06.599Z,6.42
2017-12-06T14:02:12.983Z,6.42
2017-12-06T14:03:19.872Z,6.43
2017-12-06T14:04:29.816Z,6.42
2017-12-06T14:05:36.216Z,6.43
2017-12-06T14:06:55.035Z,6.44
2017-12-06T14:08:01.418Z,6.44
2017-12-06T14:09:08.402Z,6.44
2017-12-06T14:10:14.994Z,6.44
2017-12-06T14:11:21.369Z,6.44
2017-12-06T14:12:27.916Z,6.44
2017-12-06T14:13:34.360Z,6.45
2017-12-06T14:14:40.715Z,6.44
2017-12-06T14:15:50.412Z,6.45
2017-12-06T14:16:56.689Z,6.46
2017-12-06T14:18:02.926Z,6.46
2017-12-06T14:19:09.380Z,6.45
2017-12-06T14:20:15.744Z,6.45
2017-12-06T14:21:22.189Z,6.44
2017-12-06T14:22:28.583Z,6.44
2017-12-06T14:23:34.961Z,6.44
2017-12-06T14:24:41.180Z,6.44
2017-12-06T14:25:47.859Z,6.44
2017-12-06T14:26:54.095Z,6.44
2017-12-06T14:28:03.406Z,6.45
2017-12-06T14:29:09.908Z,6.45
2017-12-06T14:30:16.930Z,6.45
2017-12-06T14:31:23.183Z,6.45
2017-12-06T14:32:29.985Z,6.45
2017-12-06T14:33:36.375Z,6.45
2017-12-06T14:34:42.725Z,6.45
2017-12-06T14:35:49.140Z,6.45
2017-12-06T14:36:55.449Z,6.45
2017-12-06T14:38:02.171Z,6.46
2017-12-06T14:39:08.468Z,6.46
2017-12-06T14:40:14.765Z,6.45
2017-12-06T14:41:21.094Z,6.44
2017-12-06T14:42:27.358Z,6.44
2017-12-06T14:43:34.092Z,6.44
2017-12-06T14:44:43.042Z,6.45
2017-12-06T14:45:49.443Z,6.44
2017-12-06T14:46:55.767Z,6.44
2017-12-06T14:48:02.626Z,6.44
2017-12-06T14:49:08.920Z,6.45
2017-12-06T14:50:15.673Z,6.44
2017-12-06T14:51:23.077Z,6.44
2017-12-06T14:52:29.685Z,6.45